sensor_id;sensor_type;location;lat;lon;timestamp;P1;durP1;ratioP1;P2;durP2;ratioP2
9334;SDS011;4706;41.844;26.082;2022-10-15T00:00:49;4.78;;;4.32;;
9334;SDS011;4706;41.844;26.082;2022-10-15T00:03:15;5.88;;;2.90;;
9334;SDS011;4706;41.844;26.082;2022-10-15T00:05:40;4.38;;;2.90;;
9334;SDS011;4706;41.844;26.082;2022-10-15T00:08:10;5.20;;;2.95;;
9334;SDS011;4706;41.844;26.082;2022-10-15T00:10:36;3.92;;;3.03;;
9334;SDS011;4706;41.844;26.082;2022-10-15T00:13:02;6.38;;;2.83;;
9334;SDS011;4706;41.844;26.082;2022-10-15T00:15:28;5.22;;;2.83;;
9334;SDS011;4706;41.844;26.082;2022-10-15T00:17:54;4.40;;;2.70;;
9334;SDS011;4706;41.844;26.082;2022-10-15T00:20:20;8.00;;;3.20;;
9334;SDS011;4706;41.844;26.082;2022-10-15T00:22:46;4.15;;;3.00;;
9334;SDS011;4706;41.844;26.082;2022-10-15T00:25:11;5.82;;;2.88;;
9334;SDS011;4706;41.844;26.082;2022-10-15T00:27:37;5.22;;;2.80;;
9334;SDS011;4706;41.844;26.082;2022-10-15T00:30:03;4.65;;;2.95;;
9334;SDS011;4706;41.844;26.082;2022-10-15T00:32:30;3.78;;;2.70;;
9334;SDS011;4706;41.844;26.082;2022-10-15T00:34:56;4.35;;;3.20;;
9334;SDS011;4706;41.844;26.082;2022-10-15T00:37:21;4.75;;;3.22;;
9334;SDS011;4706;41.844;26.082;2022-10-15T00:39:47;5.82;;;2.80;;
9334;SDS011;4706;41.844;26.082;2022-10-15T00:42:13;3.80;;;2.70;;
9334;SDS011;4706;41.844;26.082;2022-10-15T00:49:39;3.83;;;2.85;;
9334;SDS011;4706;41.844;26.082;2022-10-15T00:52:12;5.22;;;2.88;;
9334;SDS011;4706;41.844;26.082;2022-10-15T00:54:42;5.45;;;2.78;;
9334;SDS011;4706;41.844;26.082;2022-10-15T00:57:11;4.68;;;3.00;;
9334;SDS011;4706;41.844;26.082;2022-10-15T00:59:40;4.95;;;2.55;;
9334;SDS011;4706;41.844;26.082;2022-10-15T01:02:11;6.07;;;3.40;;
9334;SDS011;4706;41.844;26.082;2022-10-15T01:04:38;4.63;;;3.05;;
9334;SDS011;4706;41.844;26.082;2022-10-15T01:07:05;5.07;;;3.08;;
9334;SDS011;4706;41.844;26.082;2022-10-15T01:09:32;5.95;;;2.83;;
9334;SDS011;4706;41.844;26.082;2022-10-15T01:11:57;5.28;;;3.13;;
9334;SDS011;4706;41.844;26.082;2022-10-15T01:17:17;4.32;;;2.92;;
9334;SDS011;4706;41.844;26.082;2022-10-15T01:31:39;5.20;;;2.78;;
9334;SDS011;4706;41.844;26.082;2022-10-15T01:36:46;6.72;;;2.90;;
9334;SDS011;4706;41.844;26.082;2022-10-15T01:39:40;3.13;;;2.30;;
9334;SDS011;4706;41.844;26.082;2022-10-15T01:42:21;5.32;;;2.70;;
9334;SDS011;4706;41.844;26.082;2022-10-15T01:44:54;5.15;;;2.45;;
9334;SDS011;4706;41.844;26.082;2022-10-15T01:48:10;5.45;;;3.20;;
9334;SDS011;4706;41.844;26.082;2022-10-15T01:50:14;5.32;;;2.88;;
9334;SDS011;4706;41.844;26.082;2022-10-15T01:52:42;5.45;;;2.90;;
9334;SDS011;4706;41.844;26.082;2022-10-15T01:55:09;5.30;;;3.20;;
9334;SDS011;4706;41.844;26.082;2022-10-15T01:57:38;5.88;;;2.72;;
9334;SDS011;4706;41.844;26.082;2022-10-15T02:00:06;6.75;;;3.40;;
9334;SDS011;4706;41.844;26.082;2022-10-15T02:02:32;4.90;;;2.95;;
9334;SDS011;4706;41.844;26.082;2022-10-15T02:04:58;4.05;;;2.65;;
9334;SDS011;4706;41.844;26.082;2022-10-15T02:07:28;4.35;;;3.17;;
9334;SDS011;4706;41.844;26.082;2022-10-15T02:10:11;4.85;;;2.85;;
9334;SDS011;4706;41.844;26.082;2022-10-15T02:15:44;3.28;;;2.40;;
9334;SDS011;4706;41.844;26.082;2022-10-15T02:21:31;4.47;;;2.40;;
9334;SDS011;4706;41.844;26.082;2022-10-15T02:24:23;3.25;;;2.35;;
9334;SDS011;4706;41.844;26.082;2022-10-15T02:26:52;4.13;;;2.65;;
9334;SDS011;4706;41.844;26.082;2022-10-15T02:29:22;3.70;;;2.58;;
9334;SDS011;4706;41.844;26.082;2022-10-15T02:31:49;3.67;;;2.47;;
9334;SDS011;4706;41.844;26.082;2022-10-15T02:34:17;4.70;;;2.72;;
9334;SDS011;4706;41.844;26.082;2022-10-15T02:36:46;3.83;;;2.72;;
9334;SDS011;4706;41.844;26.082;2022-10-15T02:39:13;2.45;;;2.20;;
9334;SDS011;4706;41.844;26.082;2022-10-15T02:41:44;4.25;;;2.50;;
9334;SDS011;4706;41.844;26.082;2022-10-15T02:44:11;4.85;;;2.30;;
9334;SDS011;4706;41.844;26.082;2022-10-15T02:46:36;4.25;;;2.40;;
9334;SDS011;4706;41.844;26.082;2022-10-15T02:49:02;3.72;;;2.03;;
9334;SDS011;4706;41.844;26.082;2022-10-15T02:51:30;6.05;;;2.42;;
9334;SDS011;4706;41.844;26.082;2022-10-15T02:53:56;3.65;;;2.60;;
9334;SDS011;4706;41.844;26.082;2022-10-15T02:56:22;6.20;;;2.85;;
9334;SDS011;4706;41.844;26.082;2022-10-15T02:58:47;5.00;;;2.40;;
9334;SDS011;4706;41.844;26.082;2022-10-15T03:01:13;2.72;;;2.25;;
9334;SDS011;4706;41.844;26.082;2022-10-15T03:03:38;3.50;;;2.60;;
9334;SDS011;4706;41.844;26.082;2022-10-15T03:06:04;2.92;;;2.33;;
9334;SDS011;4706;41.844;26.082;2022-10-15T03:08:30;8.15;;;2.72;;
9334;SDS011;4706;41.844;26.082;2022-10-15T03:10:58;4.35;;;2.05;;
9334;SDS011;4706;41.844;26.082;2022-10-15T03:13:24;3.70;;;2.22;;
9334;SDS011;4706;41.844;26.082;2022-10-15T03:15:49;4.53;;;2.47;;
9334;SDS011;4706;41.844;26.082;2022-10-15T03:18:15;3.63;;;1.98;;
9334;SDS011;4706;41.844;26.082;2022-10-15T03:20:40;3.70;;;2.10;;
9334;SDS011;4706;41.844;26.082;2022-10-15T03:23:06;3.67;;;2.10;;
9334;SDS011;4706;41.844;26.082;2022-10-15T03:25:31;3.78;;;2.42;;
9334;SDS011;4706;41.844;26.082;2022-10-15T03:27:57;3.42;;;2.50;;
9334;SDS011;4706;41.844;26.082;2022-10-15T03:30:22;4.05;;;2.67;;
9334;SDS011;4706;41.844;26.082;2022-10-15T03:32:48;3.97;;;2.53;;
9334;SDS011;4706;41.844;26.082;2022-10-15T03:35:13;5.75;;;2.47;;
9334;SDS011;4706;41.844;26.082;2022-10-15T03:37:39;4.38;;;3.00;;
9334;SDS011;4706;41.844;26.082;2022-10-15T03:40:04;5.18;;;2.90;;
9334;SDS011;4706;41.844;26.082;2022-10-15T03:42:30;4.00;;;2.60;;
9334;SDS011;4706;41.844;26.082;2022-10-15T03:44:56;3.78;;;2.47;;
9334;SDS011;4706;41.844;26.082;2022-10-15T03:47:21;6.05;;;3.13;;
9334;SDS011;4706;41.844;26.082;2022-10-15T03:49:47;4.40;;;2.50;;
9334;SDS011;4706;41.844;26.082;2022-10-15T03:52:12;4.18;;;2.42;;
9334;SDS011;4706;41.844;26.082;2022-10-15T03:54:38;3.35;;;2.25;;
9334;SDS011;4706;41.844;26.082;2022-10-15T03:57:04;3.03;;;2.10;;
9334;SDS011;4706;41.844;26.082;2022-10-15T03:59:29;3.33;;;2.45;;
9334;SDS011;4706;41.844;26.082;2022-10-15T04:01:55;3.40;;;2.45;;
9334;SDS011;4706;41.844;26.082;2022-10-15T04:04:20;4.75;;;2.78;;
9334;SDS011;4706;41.844;26.082;2022-10-15T04:06:46;3.13;;;2.45;;
9334;SDS011;4706;41.844;26.082;2022-10-15T04:09:12;4.63;;;2.63;;
9334;SDS011;4706;41.844;26.082;2022-10-15T04:11:38;5.32;;;2.30;;
9334;SDS011;4706;41.844;26.082;2022-10-15T04:14:04;3.58;;;2.33;;
9334;SDS011;4706;41.844;26.082;2022-10-15T04:16:31;3.75;;;2.30;;
9334;SDS011;4706;41.844;26.082;2022-10-15T04:18:56;4.57;;;2.50;;
9334;SDS011;4706;41.844;26.082;2022-10-15T04:21:23;3.97;;;2.40;;
9334;SDS011;4706;41.844;26.082;2022-10-15T04:23:49;3.75;;;2.10;;
9334;SDS011;4706;41.844;26.082;2022-10-15T04:26:14;3.67;;;2.05;;
9334;SDS011;4706;41.844;26.082;2022-10-15T04:28:40;6.53;;;2.80;;
9334;SDS011;4706;41.844;26.082;2022-10-15T04:31:06;5.47;;;2.95;;
9334;SDS011;4706;41.844;26.082;2022-10-15T04:33:32;6.32;;;3.75;;
9334;SDS011;4706;41.844;26.082;2022-10-15T04:36:01;4.90;;;2.65;;
9334;SDS011;4706;41.844;26.082;2022-10-15T04:38:31;7.28;;;2.30;;
9334;SDS011;4706;41.844;26.082;2022-10-15T04:41:01;4.43;;;2.30;;
9334;SDS011;4706;41.844;26.082;2022-10-15T04:43:34;3.17;;;2.17;;
9334;SDS011;4706;41.844;26.082;2022-10-15T04:46:00;6.47;;;2.33;;
9334;SDS011;4706;41.844;26.082;2022-10-15T04:48:28;3.72;;;2.40;;
9334;SDS011;4706;41.844;26.082;2022-10-15T04:50:54;5.05;;;2.33;;
9334;SDS011;4706;41.844;26.082;2022-10-15T04:53:26;3.95;;;2.47;;
9334;SDS011;4706;41.844;26.082;2022-10-15T04:55:52;5.30;;;2.25;;
9334;SDS011;4706;41.844;26.082;2022-10-15T04:58:18;5.43;;;2.60;;
9334;SDS011;4706;41.844;26.082;2022-10-15T05:00:43;4.68;;;2.30;;
9334;SDS011;4706;41.844;26.082;2022-10-15T05:03:09;5.25;;;2.70;;
9334;SDS011;4706;41.844;26.082;2022-10-15T05:05:34;3.80;;;2.65;;
9334;SDS011;4706;41.844;26.082;2022-10-15T05:08:03;4.30;;;2.25;;
9334;SDS011;4706;41.844;26.082;2022-10-15T05:10:29;5.18;;;2.08;;
9334;SDS011;4706;41.844;26.082;2022-10-15T05:12:54;3.72;;;2.20;;
9334;SDS011;4706;41.844;26.082;2022-10-15T05:15:20;5.10;;;2.30;;
9334;SDS011;4706;41.844;26.082;2022-10-15T05:17:45;4.05;;;2.15;;
9334;SDS011;4706;41.844;26.082;2022-10-15T05:20:11;4.13;;;2.45;;
9334;SDS011;4706;41.844;26.082;2022-10-15T05:22:36;5.40;;;2.28;;
9334;SDS011;4706;41.844;26.082;2022-10-15T05:25:02;6.30;;;2.33;;
9334;SDS011;4706;41.844;26.082;2022-10-15T05:27:28;4.25;;;2.28;;
9334;SDS011;4706;41.844;26.082;2022-10-15T05:29:54;4.80;;;2.30;;
9334;SDS011;4706;41.844;26.082;2022-10-15T05:32:19;5.35;;;2.28;;
9334;SDS011;4706;41.844;26.082;2022-10-15T05:34:45;5.45;;;3.45;;
9334;SDS011;4706;41.844;26.082;2022-10-15T05:37:11;2.92;;;2.42;;
9334;SDS011;4706;41.844;26.082;2022-10-15T05:39:36;3.90;;;2.33;;
9334;SDS011;4706;41.844;26.082;2022-10-15T05:42:02;5.95;;;2.40;;
9334;SDS011;4706;41.844;26.082;2022-10-15T05:44:27;4.25;;;3.38;;
9334;SDS011;4706;41.844;26.082;2022-10-15T05:46:53;3.63;;;3.17;;
9334;SDS011;4706;41.844;26.082;2022-10-15T05:49:18;7.65;;;2.58;;
9334;SDS011;4706;41.844;26.082;2022-10-15T05:51:43;3.58;;;2.00;;
9334;SDS011;4706;41.844;26.082;2022-10-15T05:54:09;5.18;;;2.30;;
9334;SDS011;4706;41.844;26.082;2022-10-15T05:56:35;3.83;;;2.20;;
9334;SDS011;4706;41.844;26.082;2022-10-15T05:59:00;4.10;;;2.30;;
9334;SDS011;4706;41.844;26.082;2022-10-15T06:01:27;4.82;;;2.83;;
9334;SDS011;4706;41.844;26.082;2022-10-15T06:03:52;4.80;;;2.80;;
9334;SDS011;4706;41.844;26.082;2022-10-15T06:06:22;7.38;;;2.72;;
9334;SDS011;4706;41.844;26.082;2022-10-15T06:08:49;3.25;;;2.65;;
9334;SDS011;4706;41.844;26.082;2022-10-15T06:11:15;6.95;;;2.65;;
9334;SDS011;4706;41.844;26.082;2022-10-15T06:13:42;3.97;;;2.33;;
9334;SDS011;4706;41.844;26.082;2022-10-15T06:16:09;4.68;;;2.70;;
9334;SDS011;4706;41.844;26.082;2022-10-15T06:18:35;5.32;;;2.30;;
9334;SDS011;4706;41.844;26.082;2022-10-15T06:21:02;8.25;;;2.53;;
9334;SDS011;4706;41.844;26.082;2022-10-15T06:23:28;2.55;;;2.30;;
9334;SDS011;4706;41.844;26.082;2022-10-15T06:25:54;5.85;;;2.60;;
9334;SDS011;4706;41.844;26.082;2022-10-15T06:28:20;4.40;;;2.55;;
9334;SDS011;4706;41.844;26.082;2022-10-15T06:30:46;5.13;;;2.58;;
9334;SDS011;4706;41.844;26.082;2022-10-15T06:33:11;4.97;;;2.40;;
9334;SDS011;4706;41.844;26.082;2022-10-15T06:35:37;3.88;;;2.50;;
9334;SDS011;4706;41.844;26.082;2022-10-15T06:38:04;8.98;;;2.83;;
9334;SDS011;4706;41.844;26.082;2022-10-15T06:40:30;6.43;;;2.72;;
9334;SDS011;4706;41.844;26.082;2022-10-15T06:43:02;7.13;;;4.45;;
9334;SDS011;4706;41.844;26.082;2022-10-15T06:45:32;3.42;;;2.90;;
9334;SDS011;4706;41.844;26.082;2022-10-15T06:48:01;5.55;;;2.75;;
9334;SDS011;4706;41.844;26.082;2022-10-15T06:50:29;4.38;;;2.42;;
9334;SDS011;4706;41.844;26.082;2022-10-15T06:52:55;4.43;;;2.65;;
9334;SDS011;4706;41.844;26.082;2022-10-15T06:55:21;4.60;;;2.70;;
9334;SDS011;4706;41.844;26.082;2022-10-15T06:57:47;4.80;;;2.70;;
9334;SDS011;4706;41.844;26.082;2022-10-15T07:00:13;5.35;;;2.58;;
9334;SDS011;4706;41.844;26.082;2022-10-15T07:02:39;6.32;;;3.10;;
9334;SDS011;4706;41.844;26.082;2022-10-15T07:05:05;5.88;;;2.95;;
9334;SDS011;4706;41.844;26.082;2022-10-15T07:07:31;7.80;;;2.70;;
9334;SDS011;4706;41.844;26.082;2022-10-15T07:09:56;5.07;;;3.60;;
9334;SDS011;4706;41.844;26.082;2022-10-15T07:12:22;5.30;;;2.60;;
9334;SDS011;4706;41.844;26.082;2022-10-15T07:14:47;5.15;;;3.22;;
9334;SDS011;4706;41.844;26.082;2022-10-15T07:17:13;4.38;;;2.97;;
9334;SDS011;4706;41.844;26.082;2022-10-15T07:19:40;7.35;;;3.55;;
9334;SDS011;4706;41.844;26.082;2022-10-15T07:22:05;8.07;;;3.47;;
9334;SDS011;4706;41.844;26.082;2022-10-15T07:24:31;7.93;;;3.50;;
9334;SDS011;4706;41.844;26.082;2022-10-15T07:26:56;5.97;;;3.55;;
9334;SDS011;4706;41.844;26.082;2022-10-15T07:29:22;6.20;;;3.22;;
9334;SDS011;4706;41.844;26.082;2022-10-15T07:31:48;4.90;;;3.70;;
9334;SDS011;4706;41.844;26.082;2022-10-15T07:34:13;5.78;;;3.50;;
9334;SDS011;4706;41.844;26.082;2022-10-15T07:36:39;15.20;;;3.58;;
9334;SDS011;4706;41.844;26.082;2022-10-15T07:39:04;6.45;;;3.17;;
9334;SDS011;4706;41.844;26.082;2022-10-15T07:41:30;5.47;;;2.75;;
9334;SDS011;4706;41.844;26.082;2022-10-15T07:43:55;3.85;;;2.80;;
9334;SDS011;4706;41.844;26.082;2022-10-15T07:46:21;7.32;;;3.50;;
9334;SDS011;4706;41.844;26.082;2022-10-15T07:48:46;5.93;;;3.50;;
9334;SDS011;4706;41.844;26.082;2022-10-15T07:51:12;8.75;;;3.80;;
9334;SDS011;4706;41.844;26.082;2022-10-15T07:53:38;8.10;;;5.90;;
9334;SDS011;4706;41.844;26.082;2022-10-15T07:56:05;5.05;;;3.15;;
9334;SDS011;4706;41.844;26.082;2022-10-15T07:58:35;8.02;;;4.13;;
9334;SDS011;4706;41.844;26.082;2022-10-15T08:01:05;5.15;;;4.18;;
9334;SDS011;4706;41.844;26.082;2022-10-15T08:03:32;5.80;;;4.53;;
9334;SDS011;4706;41.844;26.082;2022-10-15T08:06:04;4.82;;;3.78;;
9334;SDS011;4706;41.844;26.082;2022-10-15T08:08:32;5.57;;;3.92;;
9334;SDS011;4706;41.844;26.082;2022-10-15T08:11:03;7.57;;;3.85;;
9334;SDS011;4706;41.844;26.082;2022-10-15T08:13:30;6.85;;;4.45;;
9334;SDS011;4706;41.844;26.082;2022-10-15T08:15:56;9.73;;;4.63;;
9334;SDS011;4706;41.844;26.082;2022-10-15T08:18:22;7.32;;;4.97;;
9334;SDS011;4706;41.844;26.082;2022-10-15T08:20:47;7.00;;;4.70;;
9334;SDS011;4706;41.844;26.082;2022-10-15T08:23:14;4.70;;;3.70;;
9334;SDS011;4706;41.844;26.082;2022-10-15T08:25:41;5.95;;;3.92;;
9334;SDS011;4706;41.844;26.082;2022-10-15T08:28:07;6.32;;;4.05;;
9334;SDS011;4706;41.844;26.082;2022-10-15T08:30:36;6.63;;;4.70;;
9334;SDS011;4706;41.844;26.082;2022-10-15T08:33:02;6.70;;;4.93;;
9334;SDS011;4706;41.844;26.082;2022-10-15T08:35:28;8.70;;;5.25;;
9334;SDS011;4706;41.844;26.082;2022-10-15T08:38:00;5.82;;;5.32;;
9334;SDS011;4706;41.844;26.082;2022-10-15T08:40:26;9.13;;;5.00;;
9334;SDS011;4706;41.844;26.082;2022-10-15T08:42:53;7.07;;;5.38;;
9334;SDS011;4706;41.844;26.082;2022-10-15T08:45:37;6.53;;;5.13;;
9334;SDS011;4706;41.844;26.082;2022-10-15T08:48:13;7.18;;;4.90;;
9334;SDS011;4706;41.844;26.082;2022-10-15T08:53:41;8.90;;;5.35;;
9334;SDS011;4706;41.844;26.082;2022-10-15T08:56:12;5.90;;;5.35;;
9334;SDS011;4706;41.844;26.082;2022-10-15T09:01:48;6.60;;;4.72;;
9334;SDS011;4706;41.844;26.082;2022-10-15T09:10:05;8.00;;;5.20;;
9334;SDS011;4706;41.844;26.082;2022-10-15T09:15:32;9.27;;;6.55;;
9334;SDS011;4706;41.844;26.082;2022-10-15T09:18:01;9.60;;;4.63;;
9334;SDS011;4706;41.844;26.082;2022-10-15T09:20:32;6.78;;;3.92;;
9334;SDS011;4706;41.844;26.082;2022-10-15T09:22:59;5.07;;;3.92;;
9334;SDS011;4706;41.844;26.082;2022-10-15T09:25:29;14.55;;;5.25;;
9334;SDS011;4706;41.844;26.082;2022-10-15T09:27:59;30.38;;;4.97;;
9334;SDS011;4706;41.844;26.082;2022-10-15T09:35:55;7.20;;;4.22;;
9334;SDS011;4706;41.844;26.082;2022-10-15T09:38:51;6.00;;;3.72;;
9334;SDS011;4706;41.844;26.082;2022-10-15T09:44:20;5.57;;;3.95;;
9334;SDS011;4706;41.844;26.082;2022-10-15T09:46:49;6.40;;;3.67;;
9334;SDS011;4706;41.844;26.082;2022-10-15T09:49:16;7.30;;;3.65;;
9334;SDS011;4706;41.844;26.082;2022-10-15T09:51:57;4.88;;;3.42;;
9334;SDS011;4706;41.844;26.082;2022-10-15T09:57:30;5.53;;;3.60;;
9334;SDS011;4706;41.844;26.082;2022-10-15T09:59:59;6.05;;;3.50;;
9334;SDS011;4706;41.844;26.082;2022-10-15T10:02:26;7.22;;;4.50;;
9334;SDS011;4706;41.844;26.082;2022-10-15T10:04:52;7.70;;;4.13;;
9334;SDS011;4706;41.844;26.082;2022-10-15T10:07:34;4.97;;;4.18;;
9334;SDS011;4706;41.844;26.082;2022-10-15T10:10:04;5.10;;;3.90;;
9334;SDS011;4706;41.844;26.082;2022-10-15T10:12:45;7.65;;;3.75;;
9334;SDS011;4706;41.844;26.082;2022-10-15T10:17:52;6.13;;;3.85;;
9334;SDS011;4706;41.844;26.082;2022-10-15T10:20:22;6.68;;;3.75;;
9334;SDS011;4706;41.844;26.082;2022-10-15T10:25:44;4.07;;;3.38;;
9334;SDS011;4706;41.844;26.082;2022-10-15T10:30:38;5.22;;;3.40;;
9334;SDS011;4706;41.844;26.082;2022-10-15T10:33:11;4.95;;;3.47;;
9334;SDS011;4706;41.844;26.082;2022-10-15T10:35:43;5.70;;;3.20;;
9334;SDS011;4706;41.844;26.082;2022-10-15T10:38:21;7.63;;;3.80;;
9334;SDS011;4706;41.844;26.082;2022-10-15T10:41:21;7.10;;;4.18;;
9334;SDS011;4706;41.844;26.082;2022-10-15T10:43:40;5.75;;;3.63;;
9334;SDS011;4706;41.844;26.082;2022-10-15T10:46:18;3.92;;;3.25;;
9334;SDS011;4706;41.844;26.082;2022-10-15T10:48:47;3.83;;;3.30;;
9334;SDS011;4706;41.844;26.082;2022-10-15T10:51:16;4.32;;;3.10;;
9334;SDS011;4706;41.844;26.082;2022-10-15T10:53:57;6.03;;;3.42;;
9334;SDS011;4706;41.844;26.082;2022-10-15T10:56:33;8.63;;;4.00;;
9334;SDS011;4706;41.844;26.082;2022-10-15T11:01:53;4.93;;;3.63;;
9334;SDS011;4706;41.844;26.082;2022-10-15T11:04:28;5.32;;;3.47;;
9334;SDS011;4706;41.844;26.082;2022-10-15T11:28:33;4.32;;;3.88;;
9334;SDS011;4706;41.844;26.082;2022-10-15T11:31:16;4.82;;;3.58;;
9334;SDS011;4706;41.844;26.082;2022-10-15T11:42:16;5.35;;;3.88;;
9334;SDS011;4706;41.844;26.082;2022-10-15T11:47:53;5.60;;;4.13;;
9334;SDS011;4706;41.844;26.082;2022-10-15T11:50:30;7.45;;;3.90;;
9334;SDS011;4706;41.844;26.082;2022-10-15T11:58:55;4.70;;;3.30;;
9334;SDS011;4706;41.844;26.082;2022-10-15T12:01:27;4.63;;;3.17;;
9334;SDS011;4706;41.844;26.082;2022-10-15T12:03:59;3.95;;;3.33;;
9334;SDS011;4706;41.844;26.082;2022-10-15T12:06:32;4.85;;;3.40;;
9334;SDS011;4706;41.844;26.082;2022-10-15T12:09:02;5.63;;;3.63;;
9334;SDS011;4706;41.844;26.082;2022-10-15T12:17:18;4.80;;;3.45;;
9334;SDS011;4706;41.844;26.082;2022-10-15T12:22:33;5.38;;;3.70;;
9334;SDS011;4706;41.844;26.082;2022-10-15T12:25:03;7.50;;;3.88;;
9334;SDS011;4706;41.844;26.082;2022-10-15T12:27:32;4.00;;;3.17;;
9334;SDS011;4706;41.844;26.082;2022-10-15T12:32:28;4.47;;;3.33;;
9334;SDS011;4706;41.844;26.082;2022-10-15T12:35:04;4.85;;;3.55;;
9334;SDS011;4706;41.844;26.082;2022-10-15T12:37:42;5.78;;;3.72;;
9334;SDS011;4706;41.844;26.082;2022-10-15T12:42:45;4.75;;;3.95;;
9334;SDS011;4706;41.844;26.082;2022-10-15T12:45:36;6.63;;;3.47;;
9334;SDS011;4706;41.844;26.082;2022-10-15T12:50:34;4.80;;;3.25;;
9334;SDS011;4706;41.844;26.082;2022-10-15T12:53:43;6.85;;;3.70;;
9334;SDS011;4706;41.844;26.082;2022-10-15T12:58:35;11.10;;;4.38;;
9334;SDS011;4706;41.844;26.082;2022-10-15T13:03:53;6.47;;;4.03;;
9334;SDS011;4706;41.844;26.082;2022-10-15T13:11:30;4.95;;;3.65;;
9334;SDS011;4706;41.844;26.082;2022-10-15T13:16:46;4.75;;;3.30;;
9334;SDS011;4706;41.844;26.082;2022-10-15T13:19:23;7.05;;;4.05;;
9334;SDS011;4706;41.844;26.082;2022-10-15T13:24:25;7.00;;;3.58;;
9334;SDS011;4706;41.844;26.082;2022-10-15T13:26:52;5.40;;;3.58;;
9334;SDS011;4706;41.844;26.082;2022-10-15T13:29:23;4.95;;;3.25;;
9334;SDS011;4706;41.844;26.082;2022-10-15T13:31:51;6.93;;;3.88;;
9334;SDS011;4706;41.844;26.082;2022-10-15T13:36:47;9.45;;;4.10;;
9334;SDS011;4706;41.844;26.082;2022-10-15T13:42:07;9.90;;;5.20;;
9334;SDS011;4706;41.844;26.082;2022-10-15T13:44:37;7.97;;;5.38;;
9334;SDS011;4706;41.844;26.082;2022-10-15T13:47:18;6.68;;;5.55;;
9334;SDS011;4706;41.844;26.082;2022-10-15T13:49:49;12.90;;;5.50;;
9334;SDS011;4706;41.844;26.082;2022-10-15T13:52:15;5.82;;;4.28;;
9334;SDS011;4706;41.844;26.082;2022-10-15T13:54:42;8.70;;;5.57;;
9334;SDS011;4706;41.844;26.082;2022-10-15T13:57:09;5.63;;;4.70;;
9334;SDS011;4706;41.844;26.082;2022-10-15T13:59:40;10.90;;;5.70;;
9334;SDS011;4706;41.844;26.082;2022-10-15T14:02:09;9.18;;;5.65;;
9334;SDS011;4706;41.844;26.082;2022-10-15T14:04:36;8.38;;;5.22;;
9334;SDS011;4706;41.844;26.082;2022-10-15T14:07:23;5.97;;;4.30;;
9334;SDS011;4706;41.844;26.082;2022-10-15T14:09:51;6.88;;;3.67;;
9334;SDS011;4706;41.844;26.082;2022-10-15T14:12:17;7.15;;;4.45;;
9334;SDS011;4706;41.844;26.082;2022-10-15T14:14:44;6.53;;;4.57;;
9334;SDS011;4706;41.844;26.082;2022-10-15T14:17:21;10.95;;;5.43;;
9334;SDS011;4706;41.844;26.082;2022-10-15T14:19:49;10.18;;;4.93;;
9334;SDS011;4706;41.844;26.082;2022-10-15T14:22:18;9.30;;;4.85;;
9334;SDS011;4706;41.844;26.082;2022-10-15T14:24:48;6.78;;;4.40;;
9334;SDS011;4706;41.844;26.082;2022-10-15T14:29:46;7.63;;;4.43;;
9334;SDS011;4706;41.844;26.082;2022-10-15T14:40:35;6.43;;;3.67;;
9334;SDS011;4706;41.844;26.082;2022-10-15T14:43:02;7.03;;;3.70;;
9334;SDS011;4706;41.844;26.082;2022-10-15T14:45:40;7.78;;;4.85;;
9334;SDS011;4706;41.844;26.082;2022-10-15T14:48:22;8.95;;;4.50;;
9334;SDS011;4706;41.844;26.082;2022-10-15T14:50:49;9.27;;;4.10;;
9334;SDS011;4706;41.844;26.082;2022-10-15T14:53:25;6.50;;;4.43;;
9334;SDS011;4706;41.844;26.082;2022-10-15T14:55:57;7.18;;;4.18;;
9334;SDS011;4706;41.844;26.082;2022-10-15T14:58:25;6.80;;;4.05;;
9334;SDS011;4706;41.844;26.082;2022-10-15T15:01:02;6.35;;;4.18;;
9334;SDS011;4706;41.844;26.082;2022-10-15T15:03:34;5.43;;;3.95;;
9334;SDS011;4706;41.844;26.082;2022-10-15T15:06:04;5.75;;;4.20;;
9334;SDS011;4706;41.844;26.082;2022-10-15T15:08:29;8.48;;;4.45;;
9334;SDS011;4706;41.844;26.082;2022-10-15T15:10:55;4.85;;;4.07;;
9334;SDS011;4706;41.844;26.082;2022-10-15T15:13:24;5.57;;;4.35;;
9334;SDS011;4706;41.844;26.082;2022-10-15T15:15:54;7.00;;;3.75;;
9334;SDS011;4706;41.844;26.082;2022-10-15T15:18:19;7.22;;;5.82;;
9334;SDS011;4706;41.844;26.082;2022-10-15T15:20:46;7.28;;;5.13;;
9334;SDS011;4706;41.844;26.082;2022-10-15T15:23:21;4.97;;;4.47;;
9334;SDS011;4706;41.844;26.082;2022-10-15T15:25:48;6.90;;;4.50;;
9334;SDS011;4706;41.844;26.082;2022-10-15T15:28:15;5.32;;;4.40;;
9334;SDS011;4706;41.844;26.082;2022-10-15T15:30:44;8.52;;;5.03;;
9334;SDS011;4706;41.844;26.082;2022-10-15T15:33:14;7.32;;;4.47;;
9334;SDS011;4706;41.844;26.082;2022-10-15T15:35:47;6.95;;;3.85;;
9334;SDS011;4706;41.844;26.082;2022-10-15T15:38:16;7.53;;;4.07;;
9334;SDS011;4706;41.844;26.082;2022-10-15T15:40:46;6.18;;;4.57;;
9334;SDS011;4706;41.844;26.082;2022-10-15T15:43:13;6.82;;;5.50;;
9334;SDS011;4706;41.844;26.082;2022-10-15T15:45:40;7.82;;;5.28;;
9334;SDS011;4706;41.844;26.082;2022-10-15T15:48:06;9.10;;;5.60;;
9334;SDS011;4706;41.844;26.082;2022-10-15T15:50:32;8.45;;;6.50;;
9334;SDS011;4706;41.844;26.082;2022-10-15T15:52:58;8.75;;;7.75;;
9334;SDS011;4706;41.844;26.082;2022-10-15T15:55:24;10.65;;;6.00;;
9334;SDS011;4706;41.844;26.082;2022-10-15T15:57:50;13.88;;;7.75;;
9334;SDS011;4706;41.844;26.082;2022-10-15T16:00:15;9.30;;;6.15;;
9334;SDS011;4706;41.844;26.082;2022-10-15T16:02:41;8.82;;;7.03;;
9334;SDS011;4706;41.844;26.082;2022-10-15T16:05:08;10.52;;;6.70;;
9334;SDS011;4706;41.844;26.082;2022-10-15T16:07:36;10.05;;;6.45;;
9334;SDS011;4706;41.844;26.082;2022-10-15T16:10:02;7.38;;;6.63;;
9334;SDS011;4706;41.844;26.082;2022-10-15T16:12:30;11.25;;;8.68;;
9334;SDS011;4706;41.844;26.082;2022-10-15T16:14:58;16.77;;;7.72;;
9334;SDS011;4706;41.844;26.082;2022-10-15T16:17:24;13.00;;;8.25;;
9334;SDS011;4706;41.844;26.082;2022-10-15T16:19:50;10.45;;;7.40;;
9334;SDS011;4706;41.844;26.082;2022-10-15T16:22:15;12.15;;;8.90;;
9334;SDS011;4706;41.844;26.082;2022-10-15T16:24:41;12.82;;;7.60;;
9334;SDS011;4706;41.844;26.082;2022-10-15T16:27:06;10.32;;;7.93;;
9334;SDS011;4706;41.844;26.082;2022-10-15T16:29:32;22.45;;;18.05;;
9334;SDS011;4706;41.844;26.082;2022-10-15T16:31:57;14.80;;;9.27;;
9334;SDS011;4706;41.844;26.082;2022-10-15T16:34:23;10.27;;;9.05;;
9334;SDS011;4706;41.844;26.082;2022-10-15T16:36:49;15.27;;;9.07;;
9334;SDS011;4706;41.844;26.082;2022-10-15T16:39:14;13.52;;;9.27;;
9334;SDS011;4706;41.844;26.082;2022-10-15T16:41:43;13.10;;;9.13;;
9334;SDS011;4706;41.844;26.082;2022-10-15T16:44:08;11.50;;;9.00;;
9334;SDS011;4706;41.844;26.082;2022-10-15T16:46:34;11.95;;;8.82;;
9334;SDS011;4706;41.844;26.082;2022-10-15T16:48:59;10.80;;;7.80;;
9334;SDS011;4706;41.844;26.082;2022-10-15T16:51:25;9.60;;;8.05;;
9334;SDS011;4706;41.844;26.082;2022-10-15T16:53:51;11.23;;;8.98;;
9334;SDS011;4706;41.844;26.082;2022-10-15T16:56:18;12.65;;;8.07;;
9334;SDS011;4706;41.844;26.082;2022-10-15T16:58:48;13.00;;;8.60;;
9334;SDS011;4706;41.844;26.082;2022-10-15T17:01:15;8.70;;;7.80;;
9334;SDS011;4706;41.844;26.082;2022-10-15T17:03:43;13.63;;;9.00;;
9334;SDS011;4706;41.844;26.082;2022-10-15T17:06:10;10.48;;;7.85;;
9334;SDS011;4706;41.844;26.082;2022-10-15T17:08:49;16.48;;;9.23;;
9334;SDS011;4706;41.844;26.082;2022-10-15T17:11:19;10.93;;;8.95;;
9334;SDS011;4706;41.844;26.082;2022-10-15T17:13:47;12.60;;;8.48;;
9334;SDS011;4706;41.844;26.082;2022-10-15T17:18:41;10.93;;;8.02;;
9334;SDS011;4706;41.844;26.082;2022-10-15T17:21:09;11.45;;;9.00;;
9334;SDS011;4706;41.844;26.082;2022-10-15T17:23:36;13.05;;;8.73;;
9334;SDS011;4706;41.844;26.082;2022-10-15T17:26:07;13.40;;;9.40;;
9334;SDS011;4706;41.844;26.082;2022-10-15T17:28:34;11.98;;;8.55;;
9334;SDS011;4706;41.844;26.082;2022-10-15T17:31:00;8.93;;;8.02;;
9334;SDS011;4706;41.844;26.082;2022-10-15T17:33:31;13.63;;;7.93;;
9334;SDS011;4706;41.844;26.082;2022-10-15T17:36:00;9.10;;;6.57;;
9334;SDS011;4706;41.844;26.082;2022-10-15T17:38:32;8.30;;;5.60;;
9334;SDS011;4706;41.844;26.082;2022-10-15T17:40:59;8.00;;;6.13;;
9334;SDS011;4706;41.844;26.082;2022-10-15T17:43:29;8.48;;;5.90;;